sensor_id;sensor_type;location;lat;lon;timestamp;pressure;altitude;pressure_sealevel;temperature;humidity
65190;BME280;51777;53.570;9.984;2023-03-03T00:02:27;102186.25;;;2.28;100.00
65190;BME280;51777;53.570;9.984;2023-03-03T00:04:52;102187.81;;;2.32;100.00
65190;BME280;51777;53.570;9.984;2023-03-03T00:07:18;102187.03;;;2.30;100.00
65190;BME280;51777;53.570;9.984;2023-03-03T00:09:47;102186.09;;;2.33;100.00
65190;BME280;51777;53.570;9.984;2023-03-03T00:12:27;102185.19;;;2.34;100.00
65190;BME280;51777;53.570;9.984;2023-03-03T00:14:53;102186.97;;;2.32;100.00
65190;BME280;51777;53.570;9.984;2023-03-03T00:17:25;102175.78;;;2.36;100.00
65190;BME280;51777;53.570;9.984;2023-03-03T00:19:51;102182.56;;;2.35;100.00
65190;BME280;51777;53.570;9.984;2023-03-03T00:22:31;102189.38;;;2.37;100.00
65190;BME280;51777;53.570;9.984;2023-03-03T00:25:21;102188.06;;;2.26;100.00
65190;BME280;51777;53.570;9.984;2023-03-03T00:27:49;102190.66;;;2.25;100.00
65190;BME280;51777;53.570;9.984;2023-03-03T00:30:25;102184.94;;;2.18;100.00
65190;BME280;51777;53.570;9.984;2023-03-03T00:32:52;102180.72;;;2.17;100.00
65190;BME280;51777;53.570;9.984;2023-03-03T00:37:57;102183.97;;;2.21;100.00
65190;BME280;51777;53.570;9.984;2023-03-03T00:40:37;102181.44;;;2.21;100.00
65190;BME280;51777;53.570;9.984;2023-03-03T00:43:24;102185.69;;;2.20;100.00
65190;BME280;51777;53.570;9.984;2023-03-03T00:45:54;102183.97;;;2.21;100.00
65190;BME280;51777;53.570;9.984;2023-03-03T00:50:48;102186.59;;;2.19;100.00
65190;BME280;51777;53.570;9.984;2023-03-03T00:53:15;102185.16;;;2.12;100.00
65190;BME280;51777;53.570;9.984;2023-03-03T00:55:42;102188.81;;;2.05;100.00
65190;BME280;51777;53.570;9.984;2023-03-03T00:58:11;102182.72;;;2.09;100.00
65190;BME280;51777;53.570;9.984;2023-03-03T01:00:38;102185.81;;;1.94;100.00
65190;BME280;51777;53.570;9.984;2023-03-03T01:03:09;102191.22;;;1.85;100.00
65190;BME280;51777;53.570;9.984;2023-03-03T01:05:36;102184.31;;;1.88;100.00
65190;BME280;51777;53.570;9.984;2023-03-03T01:08:02;102187.59;;;1.92;100.00
65190;BME280;51777;53.570;9.984;2023-03-03T01:10:29;102186.59;;;1.96;100.00
65190;BME280;51777;53.570;9.984;2023-03-03T01:12:56;102190.91;;;1.94;100.00
65190;BME280;51777;53.570;9.984;2023-03-03T01:15:22;102177.34;;;1.93;100.00
65190;BME280;51777;53.570;9.984;2023-03-03T01:17:50;102185.16;;;1.89;100.00
65190;BME280;51777;53.570;9.984;2023-03-03T01:20:16;102185.59;;;1.76;100.00
65190;BME280;51777;53.570;9.984;2023-03-03T01:22:42;102182.88;;;1.81;100.00
65190;BME280;51777;53.570;9.984;2023-03-03T01:25:08;102170.84;;;1.85;100.00
65190;BME280;51777;53.570;9.984;2023-03-03T01:27:35;102175.72;;;1.91;100.00
65190;BME280;51777;53.570;9.984;2023-03-03T01:30:02;102172.16;;;1.95;100.00
65190;BME280;51777;53.570;9.984;2023-03-03T01:32:28;102166.94;;;1.99;100.00
65190;BME280;51777;53.570;9.984;2023-03-03T01:34:54;102159.97;;;1.80;100.00
65190;BME280;51777;53.570;9.984;2023-03-03T01:37:20;102162.63;;;1.76;100.00
65190;BME280;51777;53.570;9.984;2023-03-03T01:39:50;102157.53;;;1.76;100.00
65190;BME280;51777;53.570;9.984;2023-03-03T01:42:16;102151.66;;;1.74;100.00
65190;BME280;51777;53.570;9.984;2023-03-03T01:44:42;102156.91;;;1.70;100.00
65190;BME280;51777;53.570;9.984;2023-03-03T01:47:18;102152.59;;;1.72;100.00
65190;BME280;51777;53.570;9.984;2023-03-03T01:49:55;102153.16;;;1.80;100.00
65190;BME280;51777;53.570;9.984;2023-03-03T01:55:00;102148.22;;;1.75;100.00
65190;BME280;51777;53.570;9.984;2023-03-03T01:57:33;102143.78;;;1.81;100.00
65190;BME280;51777;53.570;9.984;2023-03-03T02:00:02;102147.66;;;1.42;100.00
65190;BME280;51777;53.570;9.984;2023-03-03T02:02:30;102144.34;;;1.40;100.00
65190;BME280;51777;53.570;9.984;2023-03-03T02:04:56;102141.38;;;1.28;100.00
65190;BME280;51777;53.570;9.984;2023-03-03T02:07:24;102145.06;;;1.19;100.00
65190;BME280;51777;53.570;9.984;2023-03-03T02:12:39;102143.63;;;1.37;100.00
65190;BME280;51777;53.570;9.984;2023-03-03T02:15:33;102143.41;;;1.43;100.00
65190;BME280;51777;53.570;9.984;2023-03-03T02:18:08;102143.22;;;1.49;100.00
65190;BME280;51777;53.570;9.984;2023-03-03T02:20:53;102149.75;;;1.56;100.00
65190;BME280;51777;53.570;9.984;2023-03-03T02:23:29;102148.66;;;1.63;100.00
65190;BME280;51777;53.570;9.984;2023-03-03T02:28:20;102150.44;;;1.61;100.00
65190;BME280;51777;53.570;9.984;2023-03-03T02:30:46;102141.84;;;1.64;100.00
65190;BME280;51777;53.570;9.984;2023-03-03T02:33:19;102151.41;;;1.57;100.00
65190;BME280;51777;53.570;9.984;2023-03-03T02:35:45;102148.97;;;1.54;100.00
65190;BME280;51777;53.570;9.984;2023-03-03T02:38:29;102153.94;;;1.57;100.00
65190;BME280;51777;53.570;9.984;2023-03-03T02:43:33;102152.59;;;1.47;100.00
65190;BME280;51777;53.570;9.984;2023-03-03T02:46:01;102147.31;;;1.53;100.00
65190;BME280;51777;53.570;9.984;2023-03-03T02:48:26;102145.63;;;1.27;100.00
65190;BME280;51777;53.570;9.984;2023-03-03T02:50:51;102138.78;;;1.29;100.00
65190;BME280;51777;53.570;9.984;2023-03-03T02:53:17;102136.00;;;1.35;100.00
65190;BME280;51777;53.570;9.984;2023-03-03T02:55:42;102139.25;;;1.40;100.00
65190;BME280;51777;53.570;9.984;2023-03-03T02:58:08;102147.84;;;1.38;100.00
65190;BME280;51777;53.570;9.984;2023-03-03T03:00:33;102150.31;;;1.39;100.00
65190;BME280;51777;53.570;9.984;2023-03-03T03:02:59;102151.56;;;1.28;100.00
65190;BME280;51777;53.570;9.984;2023-03-03T03:05:24;102151.63;;;1.26;100.00
65190;BME280;51777;53.570;9.984;2023-03-03T03:07:49;102157.31;;;1.33;100.00
65190;BME280;51777;53.570;9.984;2023-03-03T03:10:15;102151.28;;;1.35;100.00
65190;BME280;51777;53.570;9.984;2023-03-03T03:12:40;102165.75;;;1.35;100.00
65190;BME280;51777;53.570;9.984;2023-03-03T03:15:06;102164.09;;;1.34;100.00
65190;BME280;51777;53.570;9.984;2023-03-03T03:17:35;102169.28;;;1.31;100.00
65190;BME280;51777;53.570;9.984;2023-03-03T03:20:01;102166.06;;;1.26;100.00
65190;BME280;51777;53.570;9.984;2023-03-03T03:22:26;102166.06;;;1.26;100.00
65190;BME280;51777;53.570;9.984;2023-03-03T03:24:52;102158.28;;;1.30;100.00
65190;BME280;51777;53.570;9.984;2023-03-03T03:27:17;102155.78;;;1.29;100.00
65190;BME280;51777;53.570;9.984;2023-03-03T03:29:43;102154.94;;;1.28;100.00
65190;BME280;51777;53.570;9.984;2023-03-03T03:32:08;102160.94;;;1.27;100.00
65190;BME280;51777;53.570;9.984;2023-03-03T03:34:34;102160.03;;;1.28;100.00
65190;BME280;51777;53.570;9.984;2023-03-03T03:36:59;102153.59;;;1.18;100.00
65190;BME280;51777;53.570;9.984;2023-03-03T03:39:25;102151.28;;;1.10;100.00
65190;BME280;51777;53.570;9.984;2023-03-03T03:41:50;102150.38;;;1.13;100.00
65190;BME280;51777;53.570;9.984;2023-03-03T03:44:15;102158.91;;;1.10;100.00
65190;BME280;51777;53.570;9.984;2023-03-03T03:46:42;102168.22;;;1.11;100.00
65190;BME280;51777;53.570;9.984;2023-03-03T03:49:07;102169.75;;;1.17;100.00
65190;BME280;51777;53.570;9.984;2023-03-03T03:51:33;102168.97;;;1.15;100.00
65190;BME280;51777;53.570;9.984;2023-03-03T03:53:59;102157.19;;;1.12;100.00
65190;BME280;51777;53.570;9.984;2023-03-03T03:56:25;102156.28;;;1.13;100.00
65190;BME280;51777;53.570;9.984;2023-03-03T03:58:50;102155.47;;;1.11;100.00
65190;BME280;51777;53.570;9.984;2023-03-03T04:01:16;102154.19;;;1.00;100.00
65190;BME280;51777;53.570;9.984;2023-03-03T04:03:41;102131.88;;;1.06;100.00
65190;BME280;51777;53.570;9.984;2023-03-03T04:06:07;102148.94;;;1.04;100.00
65190;BME280;51777;53.570;9.984;2023-03-03T04:08:35;102149.81;;;1.03;100.00
65190;BME280;51777;53.570;9.984;2023-03-03T04:11:04;102152.75;;;0.91;100.00
65190;BME280;51777;53.570;9.984;2023-03-03T04:13:29;102140.41;;;0.79;100.00
65190;BME280;51777;53.570;9.984;2023-03-03T04:15:56;102137.03;;;0.78;100.00
65190;BME280;51777;53.570;9.984;2023-03-03T04:18:21;102136.88;;;0.83;100.00
65190;BME280;51777;53.570;9.984;2023-03-03T04:20:47;102137.66;;;0.85;100.00
65190;BME280;51777;53.570;9.984;2023-03-03T04:23:13;102134.28;;;0.84;100.00
65190;BME280;51777;53.570;9.984;2023-03-03T04:25:39;102134.00;;;0.94;100.00
65190;BME280;51777;53.570;9.984;2023-03-03T04:28:04;102137.09;;;0.77;100.00
65190;BME280;51777;53.570;9.984;2023-03-03T04:30:30;102144.72;;;0.77;100.00
65190;BME280;51777;53.570;9.984;2023-03-03T04:32:55;102143.19;;;0.71;100.00
65190;BME280;51777;53.570;9.984;2023-03-03T04:35:21;102143.41;;;0.65;100.00
65190;BME280;51777;53.570;9.984;2023-03-03T04:37:46;102144.13;;;0.69;100.00
65190;BME280;51777;53.570;9.984;2023-03-03T04:40:12;102146.66;;;0.69;100.00
65190;BME280;51777;53.570;9.984;2023-03-03T04:42:37;102138.81;;;0.76;100.00
65190;BME280;51777;53.570;9.984;2023-03-03T04:45:03;102129.50;;;0.75;100.00
65190;BME280;51777;53.570;9.984;2023-03-03T04:47:29;102138.06;;;0.73;100.00
65190;BME280;51777;53.570;9.984;2023-03-03T04:49:56;102128.84;;;0.69;100.00
65190;BME280;51777;53.570;9.984;2023-03-03T04:52:22;102134.09;;;0.64;100.00
65190;BME280;51777;53.570;9.984;2023-03-03T04:54:47;102135.56;;;0.71;100.00
65190;BME280;51777;53.570;9.984;2023-03-03T04:57:12;102135.28;;;0.80;100.00
65190;BME280;51777;53.570;9.984;2023-03-03T04:59:38;102146.84;;;0.91;100.00
65190;BME280;51777;53.570;9.984;2023-03-03T05:02:03;102153.59;;;0.92;100.00
65190;BME280;51777;53.570;9.984;2023-03-03T05:04:29;102141.09;;;0.84;100.00
65190;BME280;51777;53.570;9.984;2023-03-03T05:06:55;102147.78;;;0.88;100.00
65190;BME280;51777;53.570;9.984;2023-03-03T05:09:21;102143.25;;;0.96;100.00
65190;BME280;51777;53.570;9.984;2023-03-03T05:11:47;102146.56;;;0.98;100.00
65190;BME280;51777;53.570;9.984;2023-03-03T05:14:12;102144.03;;;0.98;100.00
65190;BME280;51777;53.570;9.984;2023-03-03T05:16:38;102149.19;;;0.97;100.00
65190;BME280;51777;53.570;9.984;2023-03-03T05:19:03;102151.53;;;1.03;100.00
65190;BME280;51777;53.570;9.984;2023-03-03T05:21:29;102156.38;;;1.10;100.00
65190;BME280;51777;53.570;9.984;2023-03-03T05:23:54;102148.72;;;1.10;100.00
65190;BME280;51777;53.570;9.984;2023-03-03T05:26:19;102139.47;;;1.08;100.00
65190;BME280;51777;53.570;9.984;2023-03-03T05:28:45;102144.44;;;1.12;100.00
65190;BME280;51777;53.570;9.984;2023-03-03T05:31:10;102143.59;;;1.12;100.00
65190;BME280;51777;53.570;9.984;2023-03-03T05:33:36;102142.72;;;1.13;100.00
65190;BME280;51777;53.570;9.984;2023-03-03T05:36:02;102139.28;;;1.14;100.00
65190;BME280;51777;53.570;9.984;2023-03-03T05:38:28;102143.41;;;1.18;100.00
65190;BME280;51777;53.570;9.984;2023-03-03T05:40:54;102147.66;;;1.17;100.00
65190;BME280;51777;53.570;9.984;2023-03-03T05:43:19;102152.63;;;1.21;100.00
65190;BME280;51777;53.570;9.984;2023-03-03T05:45:45;102158.50;;;1.24;100.00
65190;BME280;51777;53.570;9.984;2023-03-03T05:48:10;102166.91;;;1.26;100.00
65190;BME280;51777;53.570;9.984;2023-03-03T05:50:37;102158.38;;;1.27;100.00
65190;BME280;51777;53.570;9.984;2023-03-03T05:53:02;102162.66;;;1.27;100.00
65190;BME280;51777;53.570;9.984;2023-03-03T05:55:28;102156.72;;;1.26;100.00
65190;BME280;51777;53.570;9.984;2023-03-03T05:57:54;102161.88;;;1.25;100.00
65190;BME280;51777;53.570;9.984;2023-03-03T06:00:19;102152.47;;;1.27;100.00
65190;BME280;51777;53.570;9.984;2023-03-03T06:02:45;102151.69;;;1.25;100.00
65190;BME280;51777;53.570;9.984;2023-03-03T06:05:10;102156.84;;;1.22;100.00
65190;BME280;51777;53.570;9.984;2023-03-03T06:07:36;102146.59;;;1.23;100.00
65190;BME280;51777;53.570;9.984;2023-03-03T06:10:02;102143.56;;;1.13;100.00
65190;BME280;51777;53.570;9.984;2023-03-03T06:12:28;102155.53;;;1.10;100.00
65190;BME280;51777;53.570;9.984;2023-03-03T06:14:54;102159.03;;;1.07;100.00
65190;BME280;51777;53.570;9.984;2023-03-03T06:17:20;102163.94;;;1.13;100.00
65190;BME280;51777;53.570;9.984;2023-03-03T06:19:45;102177.22;;;1.22;100.00
65190;BME280;51777;53.570;9.984;2023-03-03T06:22:11;102172.84;;;1.27;100.00
65190;BME280;51777;53.570;9.984;2023-03-03T06:24:39;102178.66;;;1.30;100.00
65190;BME280;51777;53.570;9.984;2023-03-03T06:27:05;102182.69;;;1.36;100.00
65190;BME280;51777;53.570;9.984;2023-03-03T06:29:30;102184.41;;;1.37;100.00
65190;BME280;51777;53.570;9.984;2023-03-03T06:32:35;102190.16;;;1.42;100.00
65190;BME280;51777;53.570;9.984;2023-03-03T06:35:00;102190.81;;;1.47;100.00
65190;BME280;51777;53.570;9.984;2023-03-03T06:37:29;102183.97;;;1.49;100.00
65190;BME280;51777;53.570;9.984;2023-03-03T06:39:55;102185.66;;;1.50;100.00
65190;BME280;51777;53.570;9.984;2023-03-03T06:42:21;102183.00;;;1.53;100.00
65190;BME280;51777;53.570;9.984;2023-03-03T06:44:49;102183.09;;;1.50;100.00
65190;BME280;51777;53.570;9.984;2023-03-03T06:47:14;102186.38;;;1.54;100.00
65190;BME280;51777;53.570;9.984;2023-03-03T06:49:46;102194.06;;;1.52;100.00
65190;BME280;51777;53.570;9.984;2023-03-03T06:52:14;102194.72;;;1.57;100.00
65190;BME280;51777;53.570;9.984;2023-03-03T06:54:42;102205.50;;;1.65;100.00
65190;BME280;51777;53.570;9.984;2023-03-03T06:57:24;102207.19;;;1.66;100.00
65190;BME280;51777;53.570;9.984;2023-03-03T06:59:52;102198.75;;;1.64;100.00
65190;BME280;51777;53.570;9.984;2023-03-03T07:02:19;102215.91;;;1.59;100.00
65190;BME280;51777;53.570;9.984;2023-03-03T07:04:46;102209.06;;;1.61;100.00
65190;BME280;51777;53.570;9.984;2023-03-03T07:07:25;102197.75;;;1.43;100.00
65190;BME280;51777;53.570;9.984;2023-03-03T07:09:54;102204.31;;;1.51;100.00
65190;BME280;51777;53.570;9.984;2023-03-03T07:12:22;102214.25;;;1.58;100.00
65190;BME280;51777;53.570;9.984;2023-03-03T07:14:57;102214.94;;;1.63;100.00
65190;BME280;51777;53.570;9.984;2023-03-03T07:17:26;102220.81;;;1.65;100.00
65190;BME280;51777;53.570;9.984;2023-03-03T07:19:51;102224.13;;;1.67;100.00
65190;BME280;51777;53.570;9.984;2023-03-03T07:22:20;102228.22;;;1.71;100.00
65190;BME280;51777;53.570;9.984;2023-03-03T07:24:53;102218.81;;;1.73;100.00
65190;BME280;51777;53.570;9.984;2023-03-03T07:27:25;102230.94;;;1.67;100.00
65190;BME280;51777;53.570;9.984;2023-03-03T07:29:53;102230.06;;;1.68;100.00
65190;BME280;51777;53.570;9.984;2023-03-03T07:32:41;102232.91;;;1.59;100.00
65190;BME280;51777;53.570;9.984;2023-03-03T07:37:51;102231.78;;;1.67;100.00
65190;BME280;51777;53.570;9.984;2023-03-03T07:40:37;102228.41;;;1.67;100.00
65190;BME280;51777;53.570;9.984;2023-03-03T07:43:37;102237.53;;;1.72;100.00
65190;BME280;51777;53.570;9.984;2023-03-03T07:48:39;102233.97;;;1.53;100.00
65190;BME280;51777;53.570;9.984;2023-03-03T07:51:18;102235.97;;;1.43;100.00
65190;BME280;51777;53.570;9.984;2023-03-03T07:53:44;102232.09;;;1.32;100.00
65190;BME280;51777;53.570;9.984;2023-03-03T07:56:38;102229.78;;;1.26;100.00
65190;BME280;51777;53.570;9.984;2023-03-03T07:59:08;102237.09;;;1.35;100.00
65190;BME280;51777;53.570;9.984;2023-03-03T08:01:42;102238.38;;;1.48;100.00
65190;BME280;51777;53.570;9.984;2023-03-03T08:06:56;102231.06;;;1.64;100.00
65190;BME280;51777;53.570;9.984;2023-03-03T08:14:34;102231.13;;;1.87;100.00
65190;BME280;51777;53.570;9.984;2023-03-03T08:17:01;102229.59;;;1.82;100.00
65190;BME280;51777;53.570;9.984;2023-03-03T08:19:32;102236.09;;;1.90;100.00
65190;BME280;51777;53.570;9.984;2023-03-03T08:22:02;102239.94;;;2.02;100.00
65190;BME280;51777;53.570;9.984;2023-03-03T08:24:33;102236.19;;;2.12;100.00
65190;BME280;51777;53.570;9.984;2023-03-03T08:26:59;102229.72;;;2.27;100.00
65190;BME280;51777;53.570;9.984;2023-03-03T08:29:27;102225.09;;;2.37;100.00
65190;BME280;51777;53.570;9.984;2023-03-03T08:31:52;102224.22;;;2.38;100.00
65190;BME280;51777;53.570;9.984;2023-03-03T08:34:18;102224.03;;;2.42;100.00
65190;BME280;51777;53.570;9.984;2023-03-03T08:36:43;102222.00;;;2.28;100.00
65190;BME280;51777;53.570;9.984;2023-03-03T08:39:09;102218.31;;;2.35;100.00
65190;BME280;51777;53.570;9.984;2023-03-03T08:41:34;102221.09;;;2.53;100.00
65190;BME280;51777;53.570;9.984;2023-03-03T08:44:00;102221.53;;;2.64;100.00
65190;BME280;51777;53.570;9.984;2023-03-03T08:46:25;102217.81;;;2.71;100.00
65190;BME280;51777;53.570;9.984;2023-03-03T08:48:52;102226.75;;;2.83;100.00
65190;BME280;51777;53.570;9.984;2023-03-03T08:51:18;102221.53;;;2.86;100.00
65190;BME280;51777;53.570;9.984;2023-03-03T08:53:43;102217.44;;;3.04;100.00
65190;BME280;51777;53.570;9.984;2023-03-03T08:56:09;102219.56;;;3.14;100.00
65190;BME280;51777;53.570;9.984;2023-03-03T08:58:35;102206.78;;;3.14;100.00
65190;BME280;51777;53.570;9.984;2023-03-03T09:01:00;102215.84;;;3.21;100.00
65190;BME280;51777;53.570;9.984;2023-03-03T09:03:30;102215.41;;;2.68;100.00
65190;BME280;51777;53.570;9.984;2023-03-03T09:05:55;102222.88;;;2.51;100.00
65190;BME280;51777;53.570;9.984;2023-03-03T09:08:23;102219.75;;;2.43;100.00
65190;BME280;51777;53.570;9.984;2023-03-03T09:10:48;102224.75;;;2.46;100.00
65190;BME280;51777;53.570;9.984;2023-03-03T09:13:16;102234.72;;;2.75;100.00
65190;BME280;51777;53.570;9.984;2023-03-03T09:15:44;102241.03;;;2.88;100.00
65190;BME280;51777;53.570;9.984;2023-03-03T09:18:35;102240.06;;;2.91;100.00
65190;BME280;51777;53.570;9.984;2023-03-03T09:21:01;102237.63;;;2.88;100.00
65190;BME280;51777;53.570;9.984;2023-03-03T09:23:34;102242.44;;;2.74;100.00
65190;BME280;51777;53.570;9.984;2023-03-03T09:28:44;102239.16;;;2.70;100.00
65190;BME280;51777;53.570;9.984;2023-03-03T09:31:38;102252.06;;;2.89;100.00
65190;BME280;51777;53.570;9.984;2023-03-03T09:34:37;102252.44;;;3.02;100.00
65190;BME280;51777;53.570;9.984;2023-03-03T09:39:40;102254.75;;;2.86;100.00
65190;BME280;51777;53.570;9.984;2023-03-03T09:59:58;102255.09;;;2.99;100.00
65190;BME280;51777;53.570;9.984;2023-03-03T10:27:27;102255.72;;;4.46;100.00
65190;BME280;51777;53.570;9.984;2023-03-03T10:33:11;102252.22;;;4.49;100.00
65190;BME280;51777;53.570;9.984;2023-03-03T10:35:42;102248.66;;;4.89;100.00
65190;BME280;51777;53.570;9.984;2023-03-03T10:38:19;102249.75;;;5.02;100.00
65190;BME280;51777;53.570;9.984;2023-03-03T10:46:56;102241.56;;;4.94;100.00
65190;BME280;51777;53.570;9.984;2023-03-03T10:52:45;102248.59;;;4.34;100.00
65190;BME280;51777;53.570;9.984;2023-03-03T11:00:44;102235.25;;;4.65;100.00
65190;BME280;51777;53.570;9.984;2023-03-03T11:11:35;102232.25;;;4.55;100.00
65190;BME280;51777;53.570;9.984;2023-03-03T11:14:20;102231.50;;;4.53;100.00
65190;BME280;51777;53.570;9.984;2023-03-03T11:17:13;102226.41;;;4.34;100.00
65190;BME280;51777;53.570;9.984;2023-03-03T11:22:33;102216.81;;;4.57;100.00
65190;BME280;51777;53.570;9.984;2023-03-03T11:30:59;102209.09;;;4.94;100.00
65190;BME280;51777;53.570;9.984;2023-03-03T11:41:07;102203.59;;;5.02;100.00
65190;BME280;51777;53.570;9.984;2023-03-03T11:43:37;102203.00;;;5.14;100.00
65190;BME280;51777;53.570;9.984;2023-03-03T11:46:10;102201.75;;;5.23;100.00
65190;BME280;51777;53.570;9.984;2023-03-03T11:54:14;102184.31;;;5.12;100.00
65190;BME280;51777;53.570;9.984;2023-03-03T11:56:44;102178.19;;;5.32;100.00
65190;BME280;51777;53.570;9.984;2023-03-03T12:01:56;102171.41;;;5.48;100.00
65190;BME280;51777;53.570;9.984;2023-03-03T12:04:36;102170.25;;;5.54;100.00
65190;BME280;51777;53.570;9.984;2023-03-03T12:07:20;102167.06;;;5.66;100.00
65190;BME280;51777;53.570;9.984;2023-03-03T12:20:47;102150.50;;;6.68;100.00
65190;BME280;51777;53.570;9.984;2023-03-03T12:23:23;102161.50;;;6.86;100.00
65190;BME280;51777;53.570;9.984;2023-03-03T12:26:05;102153.66;;;6.73;100.00
65190;BME280;51777;53.570;9.984;2023-03-03T12:28:36;102147.13;;;6.97;100.00
65190;BME280;51777;53.570;9.984;2023-03-03T12:33:44;102129.59;;;6.74;100.00
65190;BME280;51777;53.570;9.984;2023-03-03T12:41:55;102128.22;;;6.53;100.00
65190;BME280;51777;53.570;9.984;2023-03-03T12:55:37;102128.06;;;7.30;100.00
65190;BME280;51777;53.570;9.984;2023-03-03T13:01:23;102107.63;;;7.57;100.00
65190;BME280;51777;53.570;9.984;2023-03-03T13:03:56;102099.41;;;7.64;100.00
65190;BME280;51777;53.570;9.984;2023-03-03T13:06:32;102103.91;;;7.75;100.00
65190;BME280;51777;53.570;9.984;2023-03-03T13:09:10;102104.13;;;7.72;100.00
65190;BME280;51777;53.570;9.984;2023-03-03T13:16:42;102093.19;;;8.10;100.00
65190;BME280;51777;53.570;9.984;2023-03-03T13:19:31;102092.16;;;8.12;100.00
65190;BME280;51777;53.570;9.984;2023-03-03T13:27:36;102082.59;;;7.73;100.00
65190;BME280;51777;53.570;9.984;2023-03-03T13:30:14;102082.25;;;7.51;100.00
65190;BME280;51777;53.570;9.984;2023-03-03T13:37:55;102083.16;;;7.64;100.00
65190;BME280;51777;53.570;9.984;2023-03-03T13:40:26;102078.00;;;7.64;100.00
65190;BME280;51777;53.570;9.984;2023-03-03T13:42:58;102074.41;;;7.66;100.00
65190;BME280;51777;53.570;9.984;2023-03-03T13:56:50;102071.84;;;7.52;100.00
65190;BME280;51777;53.570;9.984;2023-03-03T13:59:45;102064.84;;;7.54;100.00
65190;BME280;51777;53.570;9.984;2023-03-03T14:02:42;102062.19;;;7.42;100.00
65190;BME280;51777;53.570;9.984;2023-03-03T14:08:16;102052.38;;;7.48;100.00
65190;BME280;51777;53.570;9.984;2023-03-03T14:13:29;102050.34;;;7.39;100.00
65190;BME280;51777;53.570;9.984;2023-03-03T14:21:18;102040.25;;;7.50;100.00
65190;BME280;51777;53.570;9.984;2023-03-03T14:26:29;102039.13;;;7.54;100.00
65190;BME280;51777;53.570;9.984;2023-03-03T14:29:48;102036.00;;;7.49;100.00
65190;BME280;51777;53.570;9.984;2023-03-03T14:32:22;102023.19;;;7.21;100.00
65190;BME280;51777;53.570;9.984;2023-03-03T14:35:00;102027.94;;;7.27;100.00
65190;BME280;51777;53.570;9.984;2023-03-03T14:37:43;102018.56;;;7.40;100.00
65190;BME280;51777;53.570;9.984;2023-03-03T14:40:19;102022.78;;;7.41;100.00
65190;BME280;51777;53.570;9.984;2023-03-03T14:42:53;102014.78;;;7.31;100.00
65190;BME280;51777;53.570;9.984;2023-03-03T14:47:54;102020.03;;;7.16;100.00
65190;BME280;51777;53.570;9.984;2023-03-03T14:50:33;102019.38;;;7.26;100.00
65190;BME280;51777;53.570;9.984;2023-03-03T14:53:12;102011.22;;;7.05;100.00
65190;BME280;51777;53.570;9.984;2023-03-03T14:55:41;102005.72;;;7.12;100.00
65190;BME280;51777;53.570;9.984;2023-03-03T14:58:39;101992.66;;;7.15;100.00
65190;BME280;51777;53.570;9.984;2023-03-03T15:06:42;101985.38;;;6.78;100.00
65190;BME280;51777;53.570;9.984;2023-03-03T15:11:59;101991.25;;;6.81;100.00
65190;BME280;51777;53.570;9.984;2023-03-03T15:14:52;101982.81;;;6.93;100.00
65190;BME280;51777;53.570;9.984;2023-03-03T15:17:32;101985.03;;;6.99;100.00
65190;BME280;51777;53.570;9.984;2023-03-03T15:20:01;101980.25;;;6.78;100.00
65190;BME280;51777;53.570;9.984;2023-03-03T15:25:52;101966.34;;;6.53;100.00
65190;BME280;51777;53.570;9.984;2023-03-03T15:31:30;101960.41;;;6.52;100.00
65190;BME280;51777;53.570;9.984;2023-03-03T15:34:32;101966.38;;;6.67;100.00
65190;BME280;51777;53.570;9.984;2023-03-03T15:37:16;101957.59;;;6.71;100.00
65190;BME280;51777;53.570;9.984;2023-03-03T15:45:10;101961.69;;;6.59;100.00
65190;BME280;51777;53.570;9.984;2023-03-03T15:50:34;101951.78;;;6.53;100.00
65190;BME280;51777;53.570;9.984;2023-03-03T16:01:32;101950.44;;;6.32;100.00
65190;BME280;51777;53.570;9.984;2023-03-03T16:04:02;101945.69;;;6.40;100.00
65190;BME280;51777;53.570;9.984;2023-03-03T16:06:40;101947.44;;;6.39;100.00
65190;BME280;51777;53.570;9.984;2023-03-03T16:17:31;101949.47;;;6.48;100.00
65190;BME280;51777;53.570;9.984;2023-03-03T16:28:36;101947.59;;;6.22;100.00
65190;BME280;51777;53.570;9.984;2023-03-03T16:31:11;101944.00;;;6.25;100.00
65190;BME280;51777;53.570;9.984;2023-03-03T16:34:12;101945.94;;;6.21;100.00
65190;BME280;51777;53.570;9.984;2023-03-03T16:42:20;101956.41;;;6.02;100.00
65190;BME280;51777;53.570;9.984;2023-03-03T16:50:45;101956.41;;;5.86;100.00
65190;BME280;51777;53.570;9.984;2023-03-03T16:53:26;101947.78;;;5.87;100.00
65190;BME280;51777;53.570;9.984;2023-03-03T16:56:07;101952.78;;;5.91;100.00
65190;BME280;51777;53.570;9.984;2023-03-03T17:04:42;101948.22;;;5.80;100.00
65190;BME280;51777;53.570;9.984;2023-03-03T17:07:37;101962.88;;;5.78;100.00
65190;BME280;51777;53.570;9.984;2023-03-03T17:12:46;101962.28;;;5.88;100.00
65190;BME280;51777;53.570;9.984;2023-03-03T17:18:32;101965.34;;;5.79;100.00
65190;BME280;51777;53.570;9.984;2023-03-03T17:20:59;101951.59;;;5.80;100.00
65190;BME280;51777;53.570;9.984;2023-03-03T17:23:52;101960.31;;;5.78;100.00
65190;BME280;51777;53.570;9.984;2023-03-03T17:29:55;101952.72;;;5.60;100.00
65190;BME280;51777;53.570;9.984;2023-03-03T17:43:20;101950.72;;;5.50;100.00
65190;BME280;51777;53.570;9.984;2023-03-03T17:45:50;101942.13;;;5.51;100.00
65190;BME280;51777;53.570;9.984;2023-03-03T18:05:37;101946.72;;;5.44;100.00
65190;BME280;51777;53.570;9.984;2023-03-03T18:13:26;101934.25;;;5.38;100.00
65190;BME280;51777;53.570;9.984;2023-03-03T18:30:52;101947.00;;;5.40;100.00
65190;BME280;51777;53.570;9.984;2023-03-03T18:33:15;101939.72;;;5.48;100.00
65190;BME280;51777;53.570;9.984;2023-03-03T18:36:08;101941.59;;;5.44;100.00
65190;BME280;51777;53.570;9.984;2023-03-03T18:38:37;101932.59;;;5.37;100.00